createdAt,value
2019-01-11T00:00:00.365Z,93.10
2019-01-11T00:02:30.246Z,93.10
2019-01-11T00:05:00.013Z,93.30
2019-01-11T00:07:29.684Z,93.50
2019-01-11T00:09:59.523Z,93.60
2019-01-11T00:12:29.098Z,93.20
2019-01-11T00:14:58.829Z,93.30
2019-01-11T00:17:28.438Z,93.20
2019-01-11T00:20:03.456Z,93.20
2019-01-11T00:22:29.313Z,93.30
2019-01-11T00:24:59.471Z,93.10
2019-01-11T00:27:29.172Z,93.30
2019-01-11T00:30:00.695Z,93.30
2019-01-11T00:32:30.838Z,93.30
2019-01-11T00:35:01.189Z,93.60
2019-01-11T00:37:31.279Z,93.20
2019-01-11T00:40:01.521Z,93.40
2019-01-11T00:42:31.905Z,93.60
2019-01-11T00:45:02.055Z,93.60
2019-01-11T00:47:32.013Z,93.50
2019-01-11T00:50:02.042Z,93.40
2019-01-11T00:52:31.772Z,93.50
2019-01-11T00:55:02.123Z,93.40
2019-01-11T00:57:31.988Z,93.40
2019-01-11T01:00:02.132Z,93.50
2019-01-11T01:02:31.858Z,93.40
2019-01-11T01:05:01.771Z,93.30
2019-01-11T01:07:31.967Z,93.60
2019-01-11T01:10:01.771Z,93.50
2019-01-11T01:12:31.663Z,93.40
2019-01-11T01:15:01.584Z,93.40
2019-01-11T01:17:31.593Z,93.40
2019-01-11T01:20:01.272Z,93.60
2019-01-11T01:22:30.923Z,93.70
2019-01-11T01:25:00.717Z,93.90
2019-01-11T01:27:31.028Z,93.70
2019-01-11T01:30:00.832Z,93.90
2019-01-11T01:32:30.968Z,93.90
2019-01-11T01:35:01.076Z,93.80
2019-01-11T01:37:32.607Z,94.20
2019-01-11T01:40:02.984Z,94.70
2019-01-11T01:42:33.032Z,94.70
2019-01-11T01:45:02.825Z,94.10
2019-01-11T01:47:32.691Z,94.70
2019-01-11T01:50:02.852Z,94.50
2019-01-11T01:52:33.109Z,94.00
2019-01-11T01:55:02.934Z,94.00
2019-01-11T01:57:32.788Z,94.20
2019-01-11T02:00:02.392Z,94.20
2019-01-11T02:02:32.545Z,94.40
2019-01-11T02:05:02.402Z,94.40
2019-01-11T02:07:32.118Z,94.50
2019-01-11T02:10:02.168Z,95.00
2019-01-11T02:12:31.758Z,94.70
2019-01-11T02:15:01.785Z,94.50
2019-01-11T02:17:31.353Z,94.30
2019-01-11T02:20:01.253Z,94.40
2019-01-11T02:22:33.194Z,94.40
2019-01-11T02:25:02.948Z,94.40
2019-01-11T02:27:32.590Z,94.40
2019-01-11T02:30:02.234Z,94.30
2019-01-11T02:32:31.922Z,94.50
2019-01-11T02:35:01.471Z,94.70
2019-01-11T02:37:31.386Z,94.60
2019-01-11T02:40:01.065Z,94.50
2019-01-11T02:42:30.693Z,94.70
2019-01-11T02:45:00.704Z,94.70
2019-01-11T02:47:30.809Z,94.80
2019-01-11T02:50:00.498Z,94.80
2019-01-11T02:52:30.717Z,94.80
2019-01-11T02:55:00.475Z,94.70
2019-01-11T02:57:30.173Z,94.60
2019-01-11T02:59:59.799Z,94.60
2019-01-11T03:02:29.415Z,94.60
2019-01-11T03:04:59.433Z,94.80
2019-01-11T03:07:29.029Z,95.00
2019-01-11T03:09:59.052Z,94.80
2019-01-11T03:12:28.740Z,94.60
2019-01-11T03:14:58.387Z,94.60
2019-01-11T03:17:28.003Z,94.70
2019-01-11T03:19:57.672Z,94.80
2019-01-11T03:22:27.703Z,94.90
2019-01-11T03:24:57.403Z,94.90
2019-01-11T03:27:27.029Z,95.10
2019-01-11T03:29:56.676Z,95.10
2019-01-11T03:32:26.414Z,95.20
2019-01-11T03:35:12.998Z,95.20
2019-01-11T03:37:43.046Z,95.30
2019-01-11T03:40:14.067Z,95.10
2019-01-11T03:42:43.870Z,94.90
2019-01-11T03:45:15.139Z,95.20
2019-01-11T03:47:44.938Z,95.00
2019-01-11T03:50:15.882Z,95.20
2019-01-11T03:52:45.823Z,95.20
2019-01-11T03:55:16.685Z,95.20
2019-01-11T03:57:47.544Z,95.20
2019-01-11T04:00:22.080Z,95.40
2019-01-11T04:02:51.746Z,95.50
2019-01-11T04:05:21.916Z,95.40
2019-01-11T04:07:51.618Z,95.30
2019-01-11T04:10:22.856Z,95.20
2019-01-11T04:12:52.573Z,95.30
2019-01-11T04:15:23.345Z,95.50
2019-01-11T04:18:19.383Z,95.90
2019-01-11T04:20:49.332Z,95.70
2019-01-11T04:23:19.302Z,95.50
2019-01-11T04:25:48.953Z,95.50
2019-01-11T04:28:18.604Z,95.60
2019-01-11T04:30:48.304Z,95.40
2019-01-11T04:33:17.943Z,95.50
2019-01-11T04:35:47.911Z,95.40
2019-01-11T04:38:17.547Z,95.30
2019-01-11T04:40:47.951Z,95.40
2019-01-11T04:43:17.642Z,95.50
2019-01-11T04:45:47.731Z,95.60
2019-01-11T04:48:17.524Z,95.90
2019-01-11T04:50:47.389Z,95.80
2019-01-11T04:53:17.085Z,96.10
2019-01-11T04:55:46.692Z,95.80
2019-01-11T04:58:16.340Z,95.90
2019-01-11T05:00:45.968Z,95.80
2019-01-11T05:03:15.594Z,95.70
2019-01-11T05:05:45.251Z,96.10
2019-01-11T05:08:14.936Z,95.80
2019-01-11T05:10:44.614Z,96.00
2019-01-11T05:13:39.264Z,96.00
2019-01-11T05:16:08.933Z,96.00
2019-01-11T05:18:38.905Z,96.10
2019-01-11T05:21:08.634Z,96.30
2019-01-11T05:23:38.304Z,96.20
2019-01-11T05:26:08.253Z,96.20
2019-01-11T05:28:38.526Z,96.40
2019-01-11T05:31:08.191Z,96.10
2019-01-11T05:33:38.222Z,96.10
2019-01-11T05:36:08.326Z,96.10
2019-01-11T05:38:37.924Z,96.10
2019-01-11T05:41:07.610Z,96.10
2019-01-11T05:43:37.207Z,96.10
2019-01-11T05:46:07.536Z,96.20
2019-01-11T05:48:37.183Z,96.00
2019-01-11T05:51:06.813Z,96.10
2019-01-11T05:53:36.888Z,96.10
2019-01-11T05:56:09.963Z,96.30
2019-01-11T05:58:52.307Z,96.30
2019-01-11T06:01:23.543Z,96.50
2019-01-11T06:03:53.462Z,96.50
2019-01-11T06:06:23.167Z,96.50
2019-01-11T06:08:53.332Z,96.50
2019-01-11T06:11:23.402Z,96.30
2019-01-11T06:13:53.456Z,96.30
2019-01-11T06:16:26.056Z,96.20
2019-01-11T06:18:55.706Z,96.30
2019-01-11T06:21:26.628Z,96.70
2019-01-11T06:23:56.681Z,97.00
2019-01-11T06:26:27.646Z,96.40
2019-01-11T06:28:57.648Z,96.40
2019-01-11T06:31:27.380Z,96.50
2019-01-11T06:33:57.048Z,96.20
2019-01-11T06:36:26.924Z,96.30
2019-01-11T06:38:57.149Z,96.00
2019-01-11T06:41:34.539Z,96.30
2019-01-11T06:44:04.302Z,96.50
2019-01-11T06:47:36.172Z,95.80
2019-01-11T06:50:13.028Z,96.20
2019-01-11T06:52:42.691Z,96.90
2019-01-11T06:55:12.795Z,96.90
2019-01-11T06:57:42.531Z,96.20
2019-01-11T07:00:13.880Z,96.70
2019-01-11T07:02:43.842Z,96.50
2019-01-11T07:05:13.646Z,96.70
2019-01-11T07:07:43.633Z,96.70
2019-01-11T07:10:18.201Z,96.50
2019-01-11T07:12:48.011Z,96.20
2019-01-11T07:15:18.248Z,96.70
2019-01-11T07:17:47.884Z,96.60
2019-01-11T07:20:17.621Z,96.60
2019-01-11T07:22:47.331Z,96.70
2019-01-11T07:25:17.093Z,96.70
2019-01-11T07:27:57.204Z,96.80
2019-01-11T07:30:34.242Z,96.70
2019-01-11T07:33:05.418Z,97.10
2019-01-11T07:35:50.613Z,96.90
2019-01-11T07:38:20.699Z,97.30
2019-01-11T07:40:50.300Z,97.00
2019-01-11T07:43:19.941Z,97.30
2019-01-11T07:45:49.567Z,97.60
2019-01-11T07:48:19.612Z,97.50
2019-01-11T07:50:49.489Z,97.20
2019-01-11T07:53:20.387Z,97.00
2019-01-11T07:55:50.077Z,97.30
2019-01-11T07:58:19.902Z,97.80
2019-01-11T08:00:49.459Z,98.00
2019-01-11T08:03:19.200Z,97.60
2019-01-11T08:05:49.070Z,98.10
2019-01-11T08:08:18.758Z,98.10
2019-01-11T08:10:48.427Z,98.20
2019-01-11T08:13:18.570Z,98.00
2019-01-11T08:15:48.960Z,98.10
2019-01-11T08:18:18.816Z,97.70
2019-01-11T08:20:55.889Z,97.70
2019-01-11T08:23:20.536Z,97.80
2019-01-11T08:25:50.277Z,98.00
2019-01-11T08:28:19.881Z,98.10
2019-01-11T08:30:49.715Z,98.10
2019-01-11T08:33:19.767Z,98.30
2019-01-11T08:35:49.823Z,97.80
2019-01-11T08:38:19.486Z,97.50
2019-01-11T08:40:49.130Z,98.10
2019-01-11T08:43:19.476Z,98.10
2019-01-11T08:45:49.204Z,97.80
2019-01-11T08:48:22.096Z,97.80
2019-01-11T08:50:52.017Z,97.60
2019-01-11T08:53:21.728Z,97.50
2019-01-11T08:55:51.842Z,97.50
2019-01-11T08:58:21.563Z,97.60
2019-01-11T09:00:51.844Z,97.80
2019-01-11T09:03:21.431Z,98.10
2019-01-11T09:05:51.072Z,97.90
2019-01-11T09:08:20.933Z,98.00
2019-01-11T09:10:50.620Z,97.60
2019-01-11T09:13:21.065Z,98.00
2019-01-11T09:15:51.013Z,98.00
2019-01-11T09:18:27.676Z,98.00
2019-01-11T09:20:57.277Z,97.50
2019-01-11T09:23:26.879Z,97.60
2019-01-11T09:25:56.798Z,98.10
2019-01-11T09:28:27.287Z,98.20
2019-01-11T09:30:56.889Z,98.00
2019-01-11T09:33:26.524Z,98.30
2019-01-11T09:35:56.193Z,98.30
2019-01-11T09:38:25.900Z,98.30
2019-01-11T09:40:55.962Z,98.20
2019-01-11T09:43:25.568Z,98.10
2019-01-11T09:45:55.318Z,98.50
2019-01-11T09:48:25.007Z,98.30
2019-01-11T09:50:54.945Z,98.40
2019-01-11T09:53:24.660Z,98.50
2019-01-11T09:55:54.310Z,98.30
2019-01-11T09:58:24.436Z,98.10
2019-01-11T10:00:59.106Z,98.00
2019-01-11T10:03:25.318Z,97.90
2019-01-11T10:05:54.967Z,98.20
2019-01-11T10:08:25.202Z,98.50
2019-01-11T10:10:55.396Z,98.40
2019-01-11T10:13:25.213Z,98.30
2019-01-11T10:15:55.061Z,98.40
2019-01-11T10:18:24.927Z,98.30
2019-01-11T10:20:54.556Z,98.20
2019-01-11T10:23:24.155Z,98.30
2019-01-11T10:25:54.302Z,98.40
2019-01-11T10:28:23.938Z,98.40
2019-01-11T10:30:53.982Z,98.50
2019-01-11T10:33:23.630Z,98.60
2019-01-11T10:35:53.544Z,98.70
2019-01-11T10:38:23.184Z,98.70
2019-01-11T10:40:52.783Z,98.80
2019-01-11T10:43:22.434Z,98.80
2019-01-11T10:45:52.035Z,98.60
2019-01-11T10:48:22.820Z,98.70
2019-01-11T10:50:52.876Z,98.60
2019-01-11T10:53:22.930Z,98.60
2019-01-11T10:55:52.837Z,98.50
2019-01-11T10:58:22.427Z,98.70
2019-01-11T11:00:52.825Z,98.50
2019-01-11T11:03:22.373Z,98.40
2019-01-11T11:05:52.106Z,98.40
2019-01-11T11:08:21.823Z,98.50
2019-01-11T11:10:51.527Z,98.50
2019-01-11T11:13:21.236Z,98.50
2019-01-11T11:15:51.166Z,98.40
2019-01-11T11:18:20.754Z,98.40
2019-01-11T11:20:50.455Z,98.40
2019-01-11T11:23:20.143Z,98.40
2019-01-11T11:25:49.944Z,98.50
2019-01-11T11:28:19.949Z,98.40
2019-01-11T11:30:51.010Z,98.30
2019-01-11T11:33:21.217Z,98.40
2019-01-11T11:35:51.021Z,98.30
2019-01-11T11:38:21.030Z,98.00
2019-01-11T11:40:50.841Z,98.30
2019-01-11T11:43:20.488Z,98.00
2019-01-11T11:45:50.144Z,98.00
2019-01-11T11:48:20.708Z,97.80
2019-01-11T11:50:50.701Z,97.80
2019-01-11T11:53:20.751Z,97.80
2019-01-11T11:55:50.331Z,97.30
2019-01-11T11:58:19.896Z,97.50
2019-01-11T12:00:49.577Z,97.60
2019-01-11T12:03:19.583Z,97.80
2019-01-11T12:05:49.583Z,97.60
2019-01-11T12:08:19.242Z,97.50
2019-01-11T12:10:49.495Z,97.50
2019-01-11T12:13:19.550Z,97.40
2019-01-11T12:15:49.426Z,97.50
2019-01-11T12:18:19.332Z,97.30
2019-01-11T12:20:49.122Z,97.30
2019-01-11T12:23:19.912Z,97.40
2019-01-11T12:25:49.507Z,97.50
2019-01-11T12:28:19.121Z,97.50
2019-01-11T12:30:48.770Z,97.70
2019-01-11T12:33:18.463Z,97.70
2019-01-11T12:35:48.040Z,97.80
2019-01-11T12:38:17.697Z,97.80
2019-01-11T12:40:47.632Z,97.70
2019-01-11T12:43:17.603Z,97.70
2019-01-11T12:45:47.245Z,97.60
2019-01-11T12:48:17.173Z,97.30
2019-01-11T12:50:46.832Z,97.30
2019-01-11T12:53:16.617Z,97.30
2019-01-11T12:55:46.536Z,97.40
2019-01-11T12:58:16.278Z,97.10
2019-01-11T13:00:45.874Z,97.20
2019-01-11T13:03:15.846Z,97.30
2019-01-11T13:05:45.687Z,97.10
2019-01-11T13:08:15.661Z,97.20
2019-01-11T13:10:45.744Z,97.20
2019-01-11T13:13:16.254Z,97.40
2019-01-11T13:15:46.715Z,97.40
2019-01-11T13:18:16.606Z,97.10
2019-01-11T13:20:46.593Z,97.00
2019-01-11T13:23:16.771Z,97.00
2019-01-11T13:25:46.906Z,96.90
2019-01-11T13:28:16.552Z,97.30
2019-01-11T13:30:46.182Z,97.00
2019-01-11T13:33:15.857Z,96.90
2019-01-11T13:35:45.862Z,96.90
2019-01-11T13:38:15.689Z,97.20
2019-01-11T13:40:45.708Z,97.10
2019-01-11T13:43:15.765Z,97.10
2019-01-11T13:45:46.401Z,96.90
2019-01-11T13:48:16.130Z,97.10
2019-01-11T13:50:45.800Z,97.00
2019-01-11T13:53:20.159Z,96.80
2019-01-11T13:55:49.877Z,96.90
2019-01-11T13:58:19.619Z,96.60
2019-01-11T14:00:49.302Z,96.60
2019-01-11T14:03:18.985Z,96.80
2019-01-11T14:05:48.581Z,96.70
2019-01-11T14:08:18.169Z,96.90
2019-01-11T14:10:47.954Z,96.60
2019-01-11T14:13:18.185Z,96.90
2019-01-11T14:15:48.152Z,96.90
2019-01-11T14:18:17.981Z,97.00
2019-01-11T14:20:48.150Z,96.90
2019-01-11T14:23:18.450Z,97.20
2019-01-11T14:25:48.061Z,97.00
2019-01-11T14:28:17.753Z,97.10
2019-01-11T14:30:47.561Z,97.20
2019-01-11T14:33:17.872Z,97.00
2019-01-11T14:35:47.629Z,96.80
2019-01-11T14:38:17.477Z,96.70
2019-01-11T14:40:47.471Z,96.70
2019-01-11T14:43:17.341Z,96.90
2019-01-11T14:45:47.326Z,96.60
2019-01-11T14:48:17.018Z,96.50
2019-01-11T14:50:46.908Z,96.60
2019-01-11T14:53:16.562Z,96.50
2019-01-11T14:55:46.274Z,96.60
2019-01-11T14:58:15.880Z,96.60
2019-01-11T15:00:45.610Z,96.20
2019-01-11T15:03:15.631Z,95.80
2019-01-11T15:05:45.717Z,96.10
2019-01-11T15:08:15.321Z,96.00
2019-01-11T15:10:45.382Z,96.00
2019-01-11T15:13:15.402Z,96.00
2019-01-11T15:15:45.791Z,96.00
2019-01-11T15:18:15.618Z,95.80
2019-01-11T15:20:45.245Z,95.90
2019-01-11T15:23:15.380Z,95.70
2019-01-11T15:25:45.021Z,95.80
2019-01-11T15:28:14.663Z,95.90
2019-01-11T15:30:45.513Z,95.80
2019-01-11T15:33:15.642Z,95.90
2019-01-11T15:35:45.564Z,95.90
2019-01-11T15:38:15.355Z,95.80
2019-01-11T15:40:45.010Z,95.90
2019-01-11T15:43:14.953Z,96.00
2019-01-11T15:45:47.944Z,96.00
2019-01-11T15:48:19.158Z,95.90
2019-01-11T15:50:57.009Z,96.00
2019-01-11T15:53:29.693Z,96.00
2019-01-11T15:56:01.309Z,95.90
2019-01-11T15:58:31.073Z,96.00
2019-01-11T16:01:00.882Z,96.00
2019-01-11T16:03:30.620Z,95.90
2019-01-11T16:06:41.583Z,96.00
2019-01-11T16:09:15.034Z,96.00
2019-01-11T16:11:51.481Z,95.90
2019-01-11T16:14:42.258Z,95.80
2019-01-11T16:17:14.153Z,95.80
2019-01-11T16:19:43.976Z,95.60
2019-01-11T16:22:14.011Z,95.50
2019-01-11T16:24:44.008Z,95.70
2019-01-11T16:27:13.990Z,95.50
2019-01-11T16:29:43.898Z,95.40
2019-01-11T16:32:13.501Z,95.60
2019-01-11T16:34:43.516Z,95.50
2019-01-11T16:37:14.489Z,95.20
2019-01-11T16:39:44.368Z,95.20
2019-01-11T16:42:14.742Z,95.20
2019-01-11T16:44:45.629Z,95.30
2019-01-11T16:47:15.458Z,95.20
2019-01-11T16:49:45.656Z,95.00
2019-01-11T16:52:15.517Z,95.20
2019-01-11T16:54:47.797Z,95.20
2019-01-11T16:57:17.989Z,95.30
2019-01-11T16:59:47.737Z,95.20
2019-01-11T17:02:17.661Z,95.40
2019-01-11T17:04:47.758Z,95.30
2019-01-11T17:07:17.476Z,95.40
2019-01-11T17:09:47.381Z,95.50
2019-01-11T17:12:17.191Z,95.30
2019-01-11T17:14:46.875Z,95.50
2019-01-11T17:17:16.662Z,95.30
2019-01-11T17:19:47.098Z,95.30
2019-01-11T17:22:17.345Z,95.40
2019-01-11T17:24:47.442Z,95.30
2019-01-11T17:27:18.225Z,95.30
2019-01-11T17:29:52.723Z,95.30
2019-01-11T17:32:23.355Z,95.60
2019-01-11T17:34:55.704Z,94.90
2019-01-11T17:37:26.708Z,95.30
2019-01-11T17:39:57.778Z,95.30
2019-01-11T17:42:28.321Z,95.60
2019-01-11T17:44:58.426Z,95.60
2019-01-11T17:47:28.317Z,95.40
2019-01-11T17:50:01.163Z,95.00
2019-01-11T17:52:29.792Z,95.30
2019-01-11T17:54:59.616Z,95.00
2019-01-11T17:57:29.234Z,94.90
2019-01-11T17:59:58.979Z,95.10
2019-01-11T18:02:31.293Z,95.00
2019-01-11T18:05:01.313Z,95.10
2019-01-11T18:07:31.046Z,95.10
2019-01-11T18:10:01.846Z,95.00
2019-01-11T18:12:31.596Z,94.90
2019-01-11T18:15:01.359Z,95.00
2019-01-11T18:17:31.342Z,94.90
2019-01-11T18:20:02.134Z,94.50
2019-01-11T18:22:31.990Z,94.80
2019-01-11T18:25:02.101Z,94.70
2019-01-11T18:27:33.455Z,94.80
2019-01-11T18:30:03.618Z,94.70
2019-01-11T18:32:33.271Z,94.90
2019-01-11T18:35:02.955Z,94.90
2019-01-11T18:37:33.124Z,95.10
2019-01-11T18:40:02.824Z,94.90
2019-01-11T18:42:32.914Z,94.90
2019-01-11T18:45:02.731Z,95.00
2019-01-11T18:47:32.509Z,94.90
2019-01-11T18:50:03.289Z,94.90
2019-01-11T18:52:34.342Z,94.90
2019-01-11T18:55:04.261Z,95.10
2019-01-11T18:57:34.103Z,94.90
2019-01-11T19:00:05.104Z,94.90
2019-01-11T19:02:35.041Z,94.90
2019-01-11T19:05:06.061Z,94.90
2019-01-11T19:07:36.809Z,94.70
2019-01-11T19:10:09.736Z,94.80
2019-01-11T19:12:39.816Z,95.00
2019-01-11T19:15:11.909Z,94.90
2019-01-11T19:17:41.711Z,94.90
2019-01-11T19:20:31.502Z,94.70
2019-01-11T19:23:02.590Z,94.80
2019-01-11T19:25:32.396Z,94.70
2019-01-11T19:28:02.101Z,94.20
2019-01-11T19:30:32.322Z,94.50
2019-01-11T19:33:02.066Z,94.40
2019-01-11T19:35:31.741Z,94.40
2019-01-11T19:38:01.456Z,94.40
2019-01-11T19:40:31.183Z,94.20
2019-01-11T19:43:01.536Z,94.50
2019-01-11T19:45:31.554Z,94.00
2019-01-11T19:48:01.176Z,94.20
2019-01-11T19:50:31.437Z,94.40
2019-01-11T19:53:01.115Z,93.70
2019-01-11T19:55:31.374Z,94.20
2019-01-11T19:58:01.728Z,94.10
2019-01-11T20:00:31.681Z,93.80
2019-01-11T20:03:01.622Z,93.90
2019-01-11T20:05:31.951Z,94.20
2019-01-11T20:08:02.969Z,94.00
2019-01-11T20:10:35.540Z,94.20
2019-01-11T20:13:05.761Z,94.20
2019-01-11T20:15:35.696Z,94.40
2019-01-11T20:18:06.111Z,94.10
2019-01-11T20:20:36.200Z,94.30
2019-01-11T20:23:06.240Z,94.20
2019-01-11T20:25:36.272Z,93.80
2019-01-11T20:28:06.708Z,94.40
2019-01-11T20:30:36.896Z,94.40
2019-01-11T20:33:07.240Z,94.00
2019-01-11T20:35:37.341Z,94.10
2019-01-11T20:38:07.327Z,94.10
2019-01-11T20:40:37.567Z,94.20
2019-01-11T20:43:07.463Z,93.60
2019-01-11T20:45:37.072Z,94.20
2019-01-11T20:48:06.773Z,94.10
2019-01-11T20:50:37.635Z,93.70
2019-01-11T20:53:07.325Z,93.60
2019-01-11T20:55:37.016Z,93.80
2019-01-11T20:58:06.784Z,93.30
2019-01-11T21:00:36.577Z,93.80
2019-01-11T21:03:09.216Z,93.80
2019-01-11T21:05:39.336Z,93.70
2019-01-11T21:08:09.698Z,93.60
2019-01-11T21:10:40.582Z,93.70
2019-01-11T21:13:10.558Z,94.00
2019-01-11T21:15:41.708Z,93.70
2019-01-11T21:18:11.693Z,94.10
2019-01-11T21:20:41.370Z,93.60
2019-01-11T21:23:11.298Z,93.50
2019-01-11T21:25:40.888Z,93.50
2019-01-11T21:28:10.813Z,93.60
2019-01-11T21:30:40.501Z,94.10
2019-01-11T21:33:10.485Z,94.20
2019-01-11T21:35:40.112Z,93.70
2019-01-11T21:38:09.805Z,93.90
2019-01-11T21:40:39.528Z,93.80
2019-01-11T21:43:09.689Z,93.50
2019-01-11T21:45:39.461Z,93.50
2019-01-11T21:48:11.583Z,94.30
2019-01-11T21:50:41.271Z,94.10
2019-01-11T21:53:11.125Z,93.70
2019-01-11T21:55:41.434Z,93.90
2019-01-11T21:58:12.188Z,93.70
2019-01-11T22:00:43.700Z,93.60
2019-01-11T22:03:18.660Z,93.30
2019-01-11T22:05:48.881Z,93.80
2019-01-11T22:08:18.769Z,94.00
2019-01-11T22:10:48.473Z,93.50
2019-01-11T22:13:18.533Z,93.70
2019-01-11T22:15:48.361Z,93.90
2019-01-11T22:18:18.237Z,93.70
2019-01-11T22:20:48.268Z,93.90
2019-01-11T22:23:23.689Z,93.90
2019-01-11T22:25:49.829Z,93.90
2019-01-11T22:28:19.883Z,93.80
2019-01-11T22:30:49.822Z,93.90
2019-01-11T22:33:19.607Z,94.10
2019-01-11T22:35:49.334Z,94.00
2019-01-11T22:38:19.088Z,94.10
2019-01-11T22:40:48.730Z,94.20
2019-01-11T22:43:18.411Z,94.40
2019-01-11T22:45:48.183Z,94.10
2019-01-11T22:48:17.915Z,94.20
2019-01-11T22:50:47.737Z,94.40
2019-01-11T22:53:17.867Z,94.30
2019-01-11T22:55:47.559Z,94.40
2019-01-11T22:58:17.302Z,94.60
2019-01-11T23:01:18.176Z,94.60
2019-01-11T23:03:50.925Z,94.50
2019-01-11T23:07:02.929Z,94.60
2019-01-11T23:09:41.496Z,94.30
2019-01-11T23:12:58.589Z,94.40
2019-01-11T23:15:40.125Z,94.70
2019-01-11T23:18:25.259Z,94.50
2019-01-11T23:20:58.742Z,94.40
2019-01-11T23:23:28.443Z,94.40
2019-01-11T23:25:58.588Z,94.40
2019-01-11T23:28:28.265Z,94.50
2019-01-11T23:30:57.934Z,94.60
2019-01-11T23:33:27.897Z,94.40
2019-01-11T23:35:57.508Z,94.60
2019-01-11T23:38:28.755Z,94.60
2019-01-11T23:40:59.052Z,94.60
2019-01-11T23:43:29.908Z,94.40
2019-01-11T23:46:00.357Z,94.40
2019-01-11T23:48:30.485Z,94.60
2019-01-11T23:51:00.199Z,94.50
2019-01-11T23:53:31.044Z,94.60
2019-01-11T23:56:01.608Z,94.60
2019-01-11T23:58:32.340Z,94.30
